Time;durP1;ratioP1;P1;durP2;ratioP2;P2;SDS_P1;SDS_P2;PMS_P1;PMS_P2;Temp;Humidity;BMP_temperature;BMP_pressure;BME280_temperature;BME280_humidity;BME280_pressure;Samples;Min_cycle;Max_cycle;Signal;HPM_P1;HPM_P2
2023/10/19 00:00:49;;;;;;;23.50;15.45;;;;;;;;;;5036226;28;20409;-72
2023/10/19 00:03:16;;;;;;;34.28;17.63;;;;;;;;;;5037962;28;20030;-71
2023/10/19 00:05:42;;;;;;;26.13;16.20;;;;;;;;;;5044050;28;20116;-72
2023/10/19 00:10:42;;;;;;;27.45;16.98;;;;;;;;;;5034329;28;20052;-71
2023/10/19 00:13:09;;;;;;;31.73;16.85;;;;;;;;;;5038296;28;20079;-72
2023/10/19 00:15:48;;;;;;;24.42;17.48;;;;;;;;;;5045156;28;20539;-72
2023/10/19 00:23:18;;;;;;;28.85;18.98;;;;;;;;;;5047610;28;20497;-72
2023/10/19 00:25:44;;;;;;;32.42;18.30;;;;;;;;;;5050641;28;20036;-72
2023/10/19 00:28:14;;;;;;;25.67;17.23;;;;;;;;;;5037465;28;20403;-73
2023/10/19 00:30:42;;;;;;;29.40;17.98;;;;;;;;;;5043992;28;20036;-72
2023/10/19 00:33:21;;;;;;;26.13;17.95;;;;;;;;;;5048707;28;20044;-71
2023/10/19 00:35:57;;;;;;;28.90;18.20;;;;;;;;;;5035494;28;20034;-72
2023/10/19 00:38:39;;;;;;;27.65;18.23;;;;;;;;;;5038029;28;20033;-72
2023/10/19 00:43:34;;;;;;;32.97;20.10;;;;;;;;;;5035057;28;20387;-72
2023/10/19 00:46:08;;;;;;;29.48;18.63;;;;;;;;;;5041039;28;20426;-73
2023/10/19 00:48:34;;;;;;;33.13;18.63;;;;;;;;;;5035722;28;20096;-72
2023/10/19 00:51:09;;;;;;;30.35;19.60;;;;;;;;;;5035613;28;20522;-72
2023/10/19 00:53:38;;;;;;;29.25;19.48;;;;;;;;;;5031153;28;20053;-72
2023/10/19 00:56:09;;;;;;;33.08;20.30;;;;;;;;;;5038669;28;20033;-72
2023/10/19 00:58:36;;;;;;;30.05;19.27;;;;;;;;;;5023038;28;20037;-72
2023/10/19 01:01:05;;;;;;;33.40;20.58;;;;;;;;;;5035190;28;20029;-73
2023/10/19 01:03:35;;;;;;;32.75;20.13;;;;;;;;;;5032746;28;20048;-73
2023/10/19 01:06:05;;;;;;;33.40;20.52;;;;;;;;;;5031642;28;20446;-73
2023/10/19 01:08:41;;;;;;;30.17;20.38;;;;;;;;;;5037525;28;20033;-73
2023/10/19 01:11:10;;;;;;;31.10;20.30;;;;;;;;;;5035510;28;20111;-73
2023/10/19 01:13:36;;;;;;;31.02;20.48;;;;;;;;;;5032789;28;20121;-73
2023/10/19 01:16:04;;;;;;;32.90;20.45;;;;;;;;;;5045861;28;20470;-73
2023/10/19 01:18:33;;;;;;;28.02;19.63;;;;;;;;;;5039487;28;20077;-73
2023/10/19 01:21:05;;;;;;;32.47;19.70;;;;;;;;;;5043027;28;20033;-73
2023/10/19 01:23:31;;;;;;;35.60;22.30;;;;;;;;;;5033953;28;20041;-73
2023/10/19 01:28:28;;;;;;;30.70;21.45;;;;;;;;;;5043176;28;20033;-73
2023/10/19 01:30:54;;;;;;;30.05;20.15;;;;;;;;;;5044603;28;20021;-73
2023/10/19 01:33:22;;;;;;;34.33;21.17;;;;;;;;;;5033949;28;20027;-72
2023/10/19 01:38:34;;;;;;;31.42;21.92;;;;;;;;;;5041125;28;20454;-73
2023/10/19 01:41:00;;;;;;;32.95;21.08;;;;;;;;;;5037081;28;20061;-72
2023/10/19 01:43:30;;;;;;;32.60;21.35;;;;;;;;;;5039120;28;20044;-73
2023/10/19 01:46:12;;;;;;;30.70;21.30;;;;;;;;;;5035352;28;20044;-72
2023/10/19 01:48:42;;;;;;;28.70;20.00;;;;;;;;;;5035863;28;20112;-73
2023/10/19 01:51:15;;;;;;;26.95;19.10;;;;;;;;;;5031602;28;20125;-72
2023/10/19 01:53:44;;;;;;;37.53;22.20;;;;;;;;;;5038400;28;20059;-72
2023/10/19 01:56:11;;;;;;;35.85;22.63;;;;;;;;;;5046999;28;20033;-73
2023/10/19 01:58:39;;;;;;;30.95;20.88;;;;;;;;;;5045330;28;20112;-72
2023/10/19 02:01:49;;;;;;;38.05;21.45;;;;;;;;;;5048600;28;20433;-72
2023/10/19 02:04:05;;;;;;;34.28;21.63;;;;;;;;;;5028921;28;20046;-72
2023/10/19 02:09:17;;;;;;;29.27;19.92;;;;;;;;;;5041012;28;20086;-72
2023/10/19 02:11:47;;;;;;;33.13;21.13;;;;;;;;;;5040632;28;20506;-72
2023/10/19 02:14:14;;;;;;;27.63;18.77;;;;;;;;;;5039672;28;20075;-71
2023/10/19 02:16:41;;;;;;;29.00;19.75;;;;;;;;;;5032915;28;20044;-72
2023/10/19 02:19:07;;;;;;;27.73;18.92;;;;;;;;;;5037828;28;20052;-72
2023/10/19 02:21:39;;;;;;;30.70;18.30;;;;;;;;;;5028941;28;20026;-72
2023/10/19 02:24:07;;;;;;;27.73;18.33;;;;;;;;;;5044090;28;20068;-71
2023/10/19 02:26:33;;;;;;;24.80;17.05;;;;;;;;;;5037446;28;20025;-72
2023/10/19 02:28:59;;;;;;;24.17;16.73;;;;;;;;;;5049405;28;20032;-72
2023/10/19 02:31:25;;;;;;;23.20;15.63;;;;;;;;;;5045067;28;20036;-72
2023/10/19 02:33:58;;;;;;;23.33;15.48;;;;;;;;;;5043379;28;20034;-72
2023/10/19 02:36:28;;;;;;;20.50;15.32;;;;;;;;;;5033253;28;20059;-72
2023/10/19 02:38:54;;;;;;;22.50;15.30;;;;;;;;;;5033522;28;20065;-73
2023/10/19 02:41:21;;;;;;;23.13;13.55;;;;;;;;;;5042920;28;20060;-72
2023/10/19 02:43:51;;;;;;;32.28;14.77;;;;;;;;;;5038854;28;20356;-72
2023/10/19 02:46:17;;;;;;;20.98;13.65;;;;;;;;;;5039176;28;20025;-73
2023/10/19 02:48:44;;;;;;;20.08;12.68;;;;;;;;;;5043016;28;20025;-72
2023/10/19 02:51:13;;;;;;;18.98;11.95;;;;;;;;;;5033976;28;20037;-73
2023/10/19 02:53:40;;;;;;;15.85;11.70;;;;;;;;;;5042926;28;20053;-72
2023/10/19 02:56:14;;;;;;;18.50;11.55;;;;;;;;;;5033150;28;20471;-72
2023/10/19 02:58:42;;;;;;;24.88;12.57;;;;;;;;;;5036582;28;20506;-73
2023/10/19 03:01:17;;;;;;;15.35;11.20;;;;;;;;;;5044812;28;20075;-73
2023/10/19 03:03:43;;;;;;;15.10;11.10;;;;;;;;;;5040356;28;20290;-72
2023/10/19 03:06:10;;;;;;;16.30;11.32;;;;;;;;;;5043254;28;20442;-72
2023/10/19 03:08:36;;;;;;;16.92;11.32;;;;;;;;;;5032403;28;20026;-72
2023/10/19 03:11:06;;;;;;;19.42;10.70;;;;;;;;;;5045251;28;20032;-72
2023/10/19 03:13:33;;;;;;;13.98;10.88;;;;;;;;;;5037415;28;20029;-72
2023/10/19 03:16:07;;;;;;;14.25;10.52;;;;;;;;;;5040582;28;20025;-72
2023/10/19 03:18:33;;;;;;;17.70;11.77;;;;;;;;;;5034487;28;20040;-73
2023/10/19 03:20:59;;;;;;;20.80;11.43;;;;;;;;;;5039138;28;20747;-72
2023/10/19 03:23:26;;;;;;;21.67;11.13;;;;;;;;;;5040159;28;20250;-74
2023/10/19 03:28:42;;;;;;;20.77;10.50;;;;;;;;;;5032268;28;20124;-72
2023/10/19 03:31:08;;;;;;;12.85;10.15;;;;;;;;;;5044966;28;20035;-72
2023/10/19 03:33:36;;;;;;;18.02;11.05;;;;;;;;;;5044395;28;20029;-72
2023/10/19 03:36:04;;;;;;;17.58;11.30;;;;;;;;;;5043133;28;20037;-72
2023/10/19 03:38:36;;;;;;;16.83;11.40;;;;;;;;;;5045232;28;20041;-72
2023/10/19 03:41:07;;;;;;;17.45;10.75;;;;;;;;;;5036103;28;20026;-72
2023/10/19 03:43:33;;;;;;;16.23;10.45;;;;;;;;;;5025117;28;20451;-72
2023/10/19 03:46:04;;;;;;;17.88;11.55;;;;;;;;;;5041289;28;20234;-72
2023/10/19 03:48:34;;;;;;;14.45;10.90;;;;;;;;;;5046601;28;20066;-71
2023/10/19 03:51:02;;;;;;;15.65;10.90;;;;;;;;;;5048083;28;20033;-72
2023/10/19 03:53:28;;;;;;;14.25;10.73;;;;;;;;;;5048831;28;20057;-71
2023/10/19 03:55:56;;;;;;;14.90;11.32;;;;;;;;;;5047376;28;20538;-71
2023/10/19 03:58:22;;;;;;;15.48;10.85;;;;;;;;;;5047872;28;20107;-72
2023/10/19 04:00:49;;;;;;;15.82;11.32;;;;;;;;;;5048903;28;20467;-72
2023/10/19 04:03:17;;;;;;;15.48;11.02;;;;;;;;;;5038373;28;20517;-72
2023/10/19 04:05:46;;;;;;;17.65;11.55;;;;;;;;;;5048755;28;20033;-72
2023/10/19 04:08:20;;;;;;;18.52;11.73;;;;;;;;;;5046888;28;20028;-72
2023/10/19 04:11:07;;;;;;;14.73;11.35;;;;;;;;;;5038838;28;20373;-72
2023/10/19 04:13:33;;;;;;;16.08;11.02;;;;;;;;;;5048292;28;20029;-72
2023/10/19 04:15:59;;;;;;;28.73;17.80;;;;;;;;;;5037372;28;20390;-73
2023/10/19 04:18:25;;;;;;;15.27;10.93;;;;;;;;;;5025300;28;20038;-73
2023/10/19 04:20:55;;;;;;;15.00;10.40;;;;;;;;;;5031412;28;20055;-72
2023/10/19 04:23:28;;;;;;;15.30;10.40;;;;;;;;;;5041626;28;20184;-73
2023/10/19 04:25:57;;;;;;;13.73;10.80;;;;;;;;;;5047883;28;20483;-72
2023/10/19 04:28:45;;;;;;;15.75;11.25;;;;;;;;;;5027014;28;20029;-72
2023/10/19 04:31:14;;;;;;;15.90;11.15;;;;;;;;;;5045034;28;20039;-72
2023/10/19 04:33:42;;;;;;;18.65;11.75;;;;;;;;;;5027772;28;20486;-73
2023/10/19 04:36:11;;;;;;;15.63;10.85;;;;;;;;;;5013614;28;20112;-72
2023/10/19 04:38:37;;;;;;;15.75;11.20;;;;;;;;;;5040786;28;20032;-73
2023/10/19 04:41:07;;;;;;;15.68;11.05;;;;;;;;;;5049564;28;20497;-73
2023/10/19 04:43:34;;;;;;;16.20;11.25;;;;;;;;;;5040135;28;20495;-73
2023/10/19 04:46:01;;;;;;;13.80;9.77;;;;;;;;;;5031931;28;20037;-73
2023/10/19 04:48:27;;;;;;;16.80;12.10;;;;;;;;;;5040736;28;20036;-73
2023/10/19 04:50:53;;;;;;;14.85;11.18;;;;;;;;;;5032781;28;20108;-73
2023/10/19 04:53:19;;;;;;;14.00;10.70;;;;;;;;;;5031248;28;20061;-73
2023/10/19 04:55:46;;;;;;;15.40;10.48;;;;;;;;;;5033075;28;20048;-73
2023/10/19 04:58:12;;;;;;;16.45;10.85;;;;;;;;;;5049065;28;20029;-73
2023/10/19 05:00:38;;;;;;;12.95;9.48;;;;;;;;;;5045560;28;20040;-72
2023/10/19 05:03:06;;;;;;;13.15;9.70;;;;;;;;;;5037601;28;20030;-72
2023/10/19 05:05:32;;;;;;;14.48;9.80;;;;;;;;;;5035786;28;20045;-73
2023/10/19 05:07:58;;;;;;;13.10;9.68;;;;;;;;;;5045100;28;20036;-73
2023/10/19 05:10:25;;;;;;;13.27;9.63;;;;;;;;;;5034461;28;20036;-73
2023/10/19 05:12:51;;;;;;;16.35;10.57;;;;;;;;;;5044335;28;20034;-73
2023/10/19 05:15:18;;;;;;;14.82;10.02;;;;;;;;;;5039134;28;20033;-73
2023/10/19 05:17:45;;;;;;;11.98;9.27;;;;;;;;;;5038214;28;20128;-73
2023/10/19 05:20:11;;;;;;;11.50;8.25;;;;;;;;;;5031207;28;20399;-72
2023/10/19 05:22:37;;;;;;;12.75;8.27;;;;;;;;;;5042252;28;20044;-72
2023/10/19 05:25:03;;;;;;;15.30;9.25;;;;;;;;;;5044451;28;20045;-72
2023/10/19 05:27:31;;;;;;;13.20;9.23;;;;;;;;;;5047172;28;20112;-73
2023/10/19 05:29:57;;;;;;;11.30;8.45;;;;;;;;;;5030443;28;20033;-72
2023/10/19 05:32:24;;;;;;;11.85;8.43;;;;;;;;;;5043862;28;20033;-72
2023/10/19 05:34:51;;;;;;;10.27;8.00;;;;;;;;;;5028614;28;20079;-72
2023/10/19 05:37:17;;;;;;;11.45;8.73;;;;;;;;;;5050878;28;20406;-72
2023/10/19 05:39:44;;;;;;;13.77;9.43;;;;;;;;;;5038591;28;20113;-73
2023/10/19 05:42:10;;;;;;;11.93;9.70;;;;;;;;;;5049893;28;20036;-73
2023/10/19 05:44:36;;;;;;;16.05;10.77;;;;;;;;;;5039575;28;20103;-72
2023/10/19 05:47:02;;;;;;;15.80;10.50;;;;;;;;;;5050169;28;20474;-72
2023/10/19 05:49:28;;;;;;;15.98;10.82;;;;;;;;;;5043889;28;20359;-72
2023/10/19 05:51:55;;;;;;;15.63;10.25;;;;;;;;;;5047344;28;20386;-72
2023/10/19 05:54:23;;;;;;;13.20;10.05;;;;;;;;;;5035512;28;20049;-73
2023/10/19 05:56:49;;;;;;;12.32;9.70;;;;;;;;;;5032514;28;20037;-73
2023/10/19 05:59:15;;;;;;;13.95;10.15;;;;;;;;;;5052610;28;20082;-72
2023/10/19 06:01:41;;;;;;;15.57;10.52;;;;;;;;;;5042656;28;20029;-73
2023/10/19 06:04:08;;;;;;;14.30;9.93;;;;;;;;;;5048528;28;20024;-73
2023/10/19 06:06:36;;;;;;;12.32;10.00;;;;;;;;;;5034638;28;20037;-73
2023/10/19 06:09:02;;;;;;;12.80;9.40;;;;;;;;;;5043011;28;20033;-73
2023/10/19 06:11:37;;;;;;;13.77;8.77;;;;;;;;;;5042118;28;20057;-73
2023/10/19 06:14:03;;;;;;;13.40;10.00;;;;;;;;;;5050431;28;20033;-73
2023/10/19 06:16:29;;;;;;;12.80;9.32;;;;;;;;;;5046612;28;20099;-73
2023/10/19 06:18:55;;;;;;;9.90;7.95;;;;;;;;;;5045200;28;20034;-73
2023/10/19 06:21:22;;;;;;;15.43;10.57;;;;;;;;;;5039273;28;20501;-72
2023/10/19 06:23:48;;;;;;;11.52;9.05;;;;;;;;;;5041898;28;20037;-74
2023/10/19 06:26:14;;;;;;;10.77;9.38;;;;;;;;;;5046608;28;20048;-72
2023/10/19 06:28:41;;;;;;;12.20;9.30;;;;;;;;;;5034257;28;20044;-72
2023/10/19 06:31:08;;;;;;;10.40;8.60;;;;;;;;;;5029560;28;20043;-72
2023/10/19 06:33:34;;;;;;;10.93;8.43;;;;;;;;;;5033933;28;20037;-72
2023/10/19 06:36:03;;;;;;;12.43;9.77;;;;;;;;;;5033608;28;20045;-72
2023/10/19 06:38:29;;;;;;;11.60;9.65;;;;;;;;;;5039163;28;20044;-73
2023/10/19 06:40:55;;;;;;;12.10;9.70;;;;;;;;;;5049052;28;20041;-73
2023/10/19 06:43:25;;;;;;;12.40;9.45;;;;;;;;;;5035794;28;20041;-73
2023/10/19 06:45:52;;;;;;;11.85;9.30;;;;;;;;;;5036989;28;20064;-72
2023/10/19 06:48:18;;;;;;;11.63;9.23;;;;;;;;;;5039388;28;20029;-72
2023/10/19 06:50:45;;;;;;;11.65;9.35;;;;;;;;;;5046864;28;20025;-72
2023/10/19 06:53:11;;;;;;;14.38;9.90;;;;;;;;;;5040735;28;20040;-73
2023/10/19 06:55:37;;;;;;;13.05;9.55;;;;;;;;;;5047546;28;20033;-73
2023/10/19 06:58:04;;;;;;;11.93;9.13;;;;;;;;;;5050406;28;20037;-73
2023/10/19 07:00:30;;;;;;;10.18;8.63;;;;;;;;;;5038949;28;20040;-73
2023/10/19 07:03:00;;;;;;;12.20;9.02;;;;;;;;;;5045520;28;20448;-73
2023/10/19 07:05:29;;;;;;;11.93;9.95;;;;;;;;;;5031166;28;20048;-72
2023/10/19 07:07:56;;;;;;;12.43;9.30;;;;;;;;;;5045525;28;20030;-79
2023/10/19 07:10:23;;;;;;;10.95;9.80;;;;;;;;;;5045115;28;20636;-80
2023/10/19 07:12:53;;;;;;;11.50;9.70;;;;;;;;;;5032152;28;20688;-80
2023/10/19 07:15:19;;;;;;;14.15;10.18;;;;;;;;;;5047283;28;20086;-81
2023/10/19 07:17:47;;;;;;;11.13;9.32;;;;;;;;;;5046853;28;20044;-84
2023/10/19 07:20:48;;;;;;;12.25;9.90;;;;;;;;;;5042463;28;20021;-81
2023/10/19 07:23:18;;;;;;;10.98;8.90;;;;;;;;;;5036598;28;20087;-81
2023/10/19 07:25:52;;;;;;;12.55;9.25;;;;;;;;;;5045350;28;20045;-78
2023/10/19 07:28:19;;;;;;;10.15;8.93;;;;;;;;;;5033709;28;20067;-80
2023/10/19 07:30:49;;;;;;;11.07;9.25;;;;;;;;;;5047240;28;20028;-82
2023/10/19 07:33:19;;;;;;;15.15;9.32;;;;;;;;;;5042218;28;20013;-80
2023/10/19 07:35:46;;;;;;;12.20;9.30;;;;;;;;;;5037245;28;20028;-80
2023/10/19 07:38:16;;;;;;;14.15;9.75;;;;;;;;;;5048925;28;20097;-80
2023/10/19 07:40:46;;;;;;;11.98;9.93;;;;;;;;;;5044942;28;20347;-79
2023/10/19 07:43:12;;;;;;;18.35;10.57;;;;;;;;;;5049556;28;20074;-79
2023/10/19 07:45:38;;;;;;;11.52;8.50;;;;;;;;;;5047259;28;20032;-79
2023/10/19 07:48:10;;;;;;;12.98;10.20;;;;;;;;;;5049161;28;20025;-80
2023/10/19 07:50:37;;;;;;;11.27;9.30;;;;;;;;;;5041110;28;20095;-77
2023/10/19 07:53:03;;;;;;;12.65;10.85;;;;;;;;;;5043843;28;20042;-79
2023/10/19 07:55:31;;;;;;;14.95;10.73;;;;;;;;;;5046338;28;20501;-80
2023/10/19 07:58:00;;;;;;;13.35;11.10;;;;;;;;;;5046944;28;20033;-76
2023/10/19 08:00:26;;;;;;;19.23;10.35;;;;;;;;;;5047203;28;20295;-77
2023/10/19 08:02:55;;;;;;;10.73;9.23;;;;;;;;;;5043083;28;20067;-78
2023/10/19 08:05:22;;;;;;;13.32;10.15;;;;;;;;;;5041931;28;20032;-77
2023/10/19 08:07:48;;;;;;;16.52;10.73;;;;;;;;;;5011813;28;20029;-79
2023/10/19 08:10:16;;;;;;;13.52;9.75;;;;;;;;;;5046921;28;20021;-78
2023/10/19 08:12:43;;;;;;;13.77;10.35;;;;;;;;;;5051474;28;20120;-79
2023/10/19 08:15:13;;;;;;;15.65;10.48;;;;;;;;;;5047094;28;20037;-78
2023/10/19 08:17:40;;;;;;;14.65;9.70;;;;;;;;;;5046246;28;20427;-78
2023/10/19 08:20:09;;;;;;;15.48;10.60;;;;;;;;;;5048309;28;20025;-79
2023/10/19 08:22:36;;;;;;;13.88;10.77;;;;;;;;;;5051044;28;20522;-80
2023/10/19 08:25:11;;;;;;;19.17;13.27;;;;;;;;;;5043210;28;20047;-80
2023/10/19 08:27:49;;;;;;;18.38;11.15;;;;;;;;;;5051187;28;20024;-79
2023/10/19 08:30:17;;;;;;;17.65;10.82;;;;;;;;;;5044524;28;20023;-78
2023/10/19 08:32:47;;;;;;;14.23;10.25;;;;;;;;;;5050950;28;20048;-78
2023/10/19 08:35:14;;;;;;;17.02;10.02;;;;;;;;;;5045807;28;20073;-79
2023/10/19 08:37:40;;;;;;;17.58;10.63;;;;;;;;;;5032561;28;20036;-78
2023/10/19 08:40:17;;;;;;;11.43;9.57;;;;;;;;;;5031437;28;20058;-77
2023/10/19 08:42:51;;;;;;;13.50;10.18;;;;;;;;;;5045036;28;20013;-79
2023/10/19 08:45:17;;;;;;;14.82;9.55;;;;;;;;;;5044908;28;20029;-79
2023/10/19 08:47:56;;;;;;;16.45;9.98;;;;;;;;;;5041258;28;20017;-78
2023/10/19 08:50:24;;;;;;;13.60;8.90;;;;;;;;;;5041314;28;20502;-79
2023/10/19 08:52:51;;;;;;;16.20;9.90;;;;;;;;;;5046803;28;20029;-80
2023/10/19 08:55:17;;;;;;;15.43;9.95;;;;;;;;;;5044849;28;20032;-79
2023/10/19 08:57:43;;;;;;;16.42;10.25;;;;;;;;;;5048068;28;20025;-81
2023/10/19 09:00:10;;;;;;;16.30;9.90;;;;;;;;;;5041376;28;20072;-79
2023/10/19 09:02:36;;;;;;;16.55;9.90;;;;;;;;;;5048458;28;20041;-79
2023/10/19 09:05:07;;;;;;;12.65;9.32;;;;;;;;;;5022624;28;20025;-78
2023/10/19 09:07:34;;;;;;;15.52;9.85;;;;;;;;;;5044947;28;20028;-78
2023/10/19 09:10:05;;;;;;;66.90;38.20;;;;;;;;;;5022853;28;20034;-75
2023/10/19 09:12:31;;;;;;;19.55;13.95;;;;;;;;;;5046773;28;20099;-77
2023/10/19 09:14:58;;;;;;;14.25;9.23;;;;;;;;;;5049601;28;20052;-76
2023/10/19 09:17:31;;;;;;;13.27;10.18;;;;;;;;;;5043964;28;20028;-78
2023/10/19 09:19:59;;;;;;;17.92;9.93;;;;;;;;;;5050447;28;20366;-79
2023/10/19 09:22:25;;;;;;;12.75;9.10;;;;;;;;;;5053623;28;20509;-79
2023/10/19 09:24:55;;;;;;;17.45;9.95;;;;;;;;;;5035428;28;20024;-79
2023/10/19 09:27:21;;;;;;;15.43;9.30;;;;;;;;;;5054615;28;20159;-78
2023/10/19 09:29:48;;;;;;;13.60;9.63;;;;;;;;;;5045660;28;20107;-79
2023/10/19 09:32:14;;;;;;;10.68;9.27;;;;;;;;;;5054952;28;20048;-79
2023/10/19 09:34:43;;;;;;;15.65;9.70;;;;;;;;;;5051633;28;20439;-79
2023/10/19 09:37:09;;;;;;;14.50;9.75;;;;;;;;;;5046307;28;20044;-78
2023/10/19 09:39:36;;;;;;;16.60;9.73;;;;;;;;;;5034480;28;20037;-79
2023/10/19 09:42:06;;;;;;;19.77;9.45;;;;;;;;;;5034809;28;20036;-82
2023/10/19 09:44:40;;;;;;;15.77;11.38;;;;;;;;;;5035661;28;20033;-80
2023/10/19 09:47:10;;;;;;;15.23;9.80;;;;;;;;;;5047945;28;20030;-80
2023/10/19 09:49:37;;;;;;;15.05;10.25;;;;;;;;;;5043004;28;20375;-81
2023/10/19 09:52:04;;;;;;;18.13;10.18;;;;;;;;;;5044041;28;20133;-79
2023/10/19 09:54:51;;;;;;;16.90;10.45;;;;;;;;;;5048064;28;20128;-79
2023/10/19 09:57:26;;;;;;;12.63;9.20;;;;;;;;;;4991044;28;20136;-79
2023/10/19 09:59:57;;;;;;;16.42;10.40;;;;;;;;;;5051030;28;20032;-81
2023/10/19 10:02:24;;;;;;;13.35;10.45;;;;;;;;;;5046988;28;20036;-79
2023/10/19 10:04:50;;;;;;;18.52;12.02;;;;;;;;;;5024648;28;20045;-77
2023/10/19 10:07:16;;;;;;;14.50;10.07;;;;;;;;;;5037277;28;20021;-77
2023/10/19 10:09:46;;;;;;;15.45;10.38;;;;;;;;;;5051054;28;20087;-77
2023/10/19 10:12:17;;;;;;;20.27;11.70;;;;;;;;;;5048730;28;20057;-79
2023/10/19 10:14:53;;;;;;;25.27;11.90;;;;;;;;;;5022598;28;20110;-78
2023/10/19 10:17:19;;;;;;;17.58;11.18;;;;;;;;;;5032289;28;20044;-77
2023/10/19 10:19:45;;;;;;;15.80;10.40;;;;;;;;;;5050109;28;20047;-78
2023/10/19 10:22:11;;;;;;;17.98;11.32;;;;;;;;;;5041147;28;20128;-78
2023/10/19 10:24:44;;;;;;;16.23;10.95;;;;;;;;;;5033750;28;20025;-77
2023/10/19 10:27:13;;;;;;;;;;;;;;;;;;5053260;28;20142;-77
2023/10/19 10:29:54;;;;;;;19.55;11.00;;;;;;;;;;5041105;28;20290;-77
2023/10/19 10:32:39;;;;;;;19.92;11.57;;;;;;;;;;5048980;28;20136;-77
2023/10/19 10:35:09;;;;;;;17.65;11.73;;;;;;;;;;5026677;28;20383;-76
2023/10/19 10:37:39;;;;;;;15.32;11.15;;;;;;;;;;5043536;28;20029;-79
2023/10/19 10:40:06;;;;;;;40.00;12.88;;;;;;;;;;5039790;28;20044;-78
2023/10/19 10:42:34;;;;;;;19.42;12.38;;;;;;;;;;5029839;28;20029;-78
2023/10/19 10:45:02;;;;;;;19.52;12.27;;;;;;;;;;5037729;28;20103;-79
2023/10/19 10:47:33;;;;;;;15.70;11.85;;;;;;;;;;5032860;28;20061;-78
2023/10/19 10:50:00;;;;;;;17.23;11.88;;;;;;;;;;5048644;28;20056;-77
2023/10/19 10:52:30;;;;;;;18.83;13.40;;;;;;;;;;5044060;28;20032;-76
2023/10/19 10:54:56;;;;;;;16.88;12.30;;;;;;;;;;5052774;28;20049;-76
2023/10/19 10:57:23;;;;;;;15.05;10.85;;;;;;;;;;5053298;28;20033;-76
2023/10/19 11:00:01;;;;;;;17.63;12.02;;;;;;;;;;5038826;28;20091;-80
2023/10/19 11:02:27;;;;;;;19.27;13.30;;;;;;;;;;5048236;28;20447;-79
2023/10/19 11:04:55;;;;;;;15.75;11.27;;;;;;;;;;5043902;28;20060;-79
2023/10/19 11:07:21;;;;;;;21.50;13.68;;;;;;;;;;5037094;28;20333;-80
2023/10/19 11:09:47;;;;;;;21.63;12.52;;;;;;;;;;5038646;28;20036;-79
2023/10/19 11:12:19;;;;;;;16.05;11.38;;;;;;;;;;5025257;28;20545;-78
2023/10/19 11:15:09;;;;;;;15.82;11.70;;;;;;;;;;5039871;28;20033;-79
2023/10/19 11:17:42;;;;;;;16.23;11.73;;;;;;;;;;5037053;28;20041;-79
2023/10/19 11:20:13;;;;;;;21.23;13.15;;;;;;;;;;5036727;28;20029;-79
2023/10/19 11:22:48;;;;;;;18.87;13.17;;;;;;;;;;5038353;28;20479;-78
2023/10/19 11:25:30;;;;;;;16.45;12.38;;;;;;;;;;5044652;28;20037;-78
2023/10/19 11:28:00;;;;;;;17.73;13.35;;;;;;;;;;5039986;28;20090;-79
2023/10/19 11:30:27;;;;;;;16.90;12.55;;;;;;;;;;5044247;28;20124;-79
2023/10/19 11:32:57;;;;;;;19.35;13.23;;;;;;;;;;5039908;28;20029;-79
2023/10/19 11:35:23;;;;;;;16.25;12.30;;;;;;;;;;5037028;28;20383;-79
2023/10/19 11:37:50;;;;;;;18.23;13.65;;;;;;;;;;5041849;28;20032;-80
2023/10/19 11:40:16;;;;;;;17.08;12.95;;;;;;;;;;5041055;28;20451;-79
2023/10/19 11:42:43;;;;;;;17.50;12.73;;;;;;;;;;5036860;28;20079;-78
2023/10/19 11:45:11;;;;;;;22.33;14.95;;;;;;;;;;5039681;28;20125;-77
2023/10/19 11:47:37;;;;;;;20.52;14.68;;;;;;;;;;5043049;28;20025;-78
2023/10/19 11:50:03;;;;;;;23.30;14.15;;;;;;;;;;5038549;28;20039;-79
2023/10/19 11:52:30;;;;;;;23.55;14.35;;;;;;;;;;5041836;28;20069;-78
2023/10/19 11:54:56;;;;;;;19.83;14.43;;;;;;;;;;5038462;28;20061;-79
2023/10/19 11:57:22;;;;;;;19.77;13.48;;;;;;;;;;5040204;28;20037;-78
2023/10/19 11:59:52;;;;;;;19.95;13.43;;;;;;;;;;5023796;28;20026;-79
2023/10/19 12:02:19;;;;;;;23.63;14.10;;;;;;;;;;5036593;28;20056;-79
2023/10/19 12:04:45;;;;;;;23.33;14.48;;;;;;;;;;5039148;28;20032;-79
2023/10/19 12:07:11;;;;;;;21.05;13.45;;;;;;;;;;5021682;28;20082;-79
2023/10/19 12:09:37;;;;;;;20.70;13.23;;;;;;;;;;5038336;28;20037;-80
2023/10/19 12:12:05;;;;;;;18.60;13.30;;;;;;;;;;5038425;28;20045;-80
2023/10/19 12:14:34;;;;;;;18.05;12.65;;;;;;;;;;5039040;28;20029;-79
2023/10/19 12:17:03;;;;;;;21.80;13.68;;;;;;;;;;5037169;28;20032;-80
2023/10/19 12:19:30;;;;;;;22.35;13.70;;;;;;;;;;5037503;28;20060;-79
2023/10/19 12:21:56;;;;;;;20.20;13.82;;;;;;;;;;5036356;28;20037;-79
2023/10/19 12:24:23;;;;;;;16.35;13.13;;;;;;;;;;5038216;28;20075;-79
2023/10/19 12:26:50;;;;;;;17.73;13.13;;;;;;;;;;5042123;28;20033;-79
2023/10/19 12:29:20;;;;;;;19.50;12.52;;;;;;;;;;5041650;28;20032;-80
2023/10/19 12:31:47;;;;;;;19.92;13.38;;;;;;;;;;5037026;28;20364;-79
2023/10/19 12:34:13;;;;;;;19.25;14.02;;;;;;;;;;5023425;28;20030;-78
2023/10/19 12:36:41;;;;;;;21.58;12.88;;;;;;;;;;5033585;28;20359;-79
2023/10/19 12:39:07;;;;;;;19.67;13.65;;;;;;;;;;5048821;28;20035;-78
2023/10/19 12:41:34;;;;;;;20.25;12.60;;;;;;;;;;5046627;28;20053;-78
2023/10/19 12:44:12;;;;;;;24.73;14.73;;;;;;;;;;5049440;28;20036;-80
2023/10/19 12:46:40;;;;;;;24.98;16.95;;;;;;;;;;5037122;28;20131;-79
2023/10/19 12:49:13;;;;;;;21.30;14.00;;;;;;;;;;5033055;28;20188;-81
2023/10/19 12:51:42;;;;;;;21.23;13.43;;;;;;;;;;5050056;28;20033;-81
2023/10/19 12:54:10;;;;;;;25.63;13.05;;;;;;;;;;5049795;28;20049;-80
2023/10/19 12:56:39;;;;;;;25.85;14.45;;;;;;;;;;5032615;28;20048;-79
2023/10/19 12:59:06;;;;;;;40.95;14.55;;;;;;;;;;5047397;28;20471;-77
2023/10/19 13:01:35;;;;;;;60.45;15.05;;;;;;;;;;5042674;28;20029;-80
2023/10/19 13:04:06;;;;;;;46.25;15.52;;;;;;;;;;5040129;28;20036;-82
2023/10/19 13:06:33;;;;;;;37.47;14.23;;;;;;;;;;5048349;28;20033;-78
2023/10/19 13:08:59;;;;;;;39.65;13.98;;;;;;;;;;5040806;28;20041;-81
2023/10/19 13:11:27;;;;;;;325.08;28.25;;;;;;;;;;5040678;28;20053;-83
2023/10/19 13:13:53;;;;;;;37.03;13.90;;;;;;;;;;5045061;28;20087;-76
2023/10/19 13:16:19;;;;;;;44.03;14.38;;;;;;;;;;5051549;28;20049;-76
2023/10/19 13:18:45;;;;;;;39.22;13.45;;;;;;;;;;5040130;28;20073;-80
2023/10/19 13:21:16;;;;;;;35.30;13.32;;;;;;;;;;5050018;28;20052;-80
2023/10/19 13:23:44;;;;;;;28.30;12.50;;;;;;;;;;5048544;28;20040;-79
2023/10/19 13:26:20;;;;;;;72.97;14.45;;;;;;;;;;5046220;28;20041;-77
2023/10/19 13:28:46;;;;;;;30.02;13.50;;;;;;;;;;5046742;28;20064;-78
2023/10/19 13:31:16;;;;;;;29.70;12.25;;;;;;;;;;5042669;28;20033;-77
2023/10/19 13:33:43;;;;;;;21.63;12.45;;;;;;;;;;5048582;28;20430;-76
2023/10/19 13:36:10;;;;;;;20.63;11.75;;;;;;;;;;5040671;28;20025;-76
2023/10/19 13:38:38;;;;;;;25.75;12.52;;;;;;;;;;5046511;28;20033;-76
2023/10/19 13:41:09;;;;;;;53.15;14.27;;;;;;;;;;5044718;28;20044;-76
2023/10/19 13:43:35;;;;;;;33.45;12.70;;;;;;;;;;5037743;28;20049;-77
2023/10/19 13:46:01;;;;;;;42.90;13.30;;;;;;;;;;5031534;28;20045;-75
2023/10/19 13:48:28;;;;;;;45.85;12.35;;;;;;;;;;5035750;28;20033;-75
2023/10/19 13:51:00;;;;;;;18.02;10.07;;;;;;;;;;5043616;28;20379;-76
2023/10/19 13:53:26;;;;;;;22.25;10.68;;;;;;;;;;5042022;28;20048;-76
2023/10/19 13:55:53;;;;;;;26.17;11.52;;;;;;;;;;5028356;28;20038;-76
2023/10/19 13:58:19;;;;;;;13.80;9.13;;;;;;;;;;5034582;28;20116;-76
2023/10/19 14:00:45;;;;;;;20.83;9.05;;;;;;;;;;5049516;28;20025;-76
2023/10/19 14:03:15;;;;;;;13.07;8.82;;;;;;;;;;5045739;28;20481;-76
2023/10/19 14:05:48;;;;;;;19.05;9.43;;;;;;;;;;5049621;28;20040;-76
2023/10/19 14:08:15;;;;;;;16.27;8.45;;;;;;;;;;5044281;28;20052;-76
2023/10/19 14:10:41;;;;;;;17.92;8.27;;;;;;;;;;5044295;28;20554;-76
2023/10/19 14:13:08;;;;;;;26.52;9.48;;;;;;;;;;5040146;28;20126;-76
2023/10/19 14:15:34;;;;;;;15.43;8.50;;;;;;;;;;5036769;28;20055;-76
2023/10/19 14:18:01;;;;;;;14.52;7.30;;;;;;;;;;5044266;28;20108;-76
2023/10/19 14:20:29;;;;;;;11.05;7.78;;;;;;;;;;5053603;28;20106;-76
2023/10/19 14:22:55;;;;;;;11.95;7.75;;;;;;;;;;5026898;28;20079;-76
2023/10/19 14:25:23;;;;;;;11.00;8.27;;;;;;;;;;5050291;28;20033;-77
2023/10/19 14:27:51;;;;;;;14.00;8.57;;;;;;;;;;5044520;28;20033;-76
2023/10/19 14:30:18;;;;;;;13.82;7.60;;;;;;;;;;5049918;28;20022;-76
2023/10/19 14:32:46;;;;;;;14.05;8.05;;;;;;;;;;5047319;28;20032;-76
2023/10/19 14:35:14;;;;;;;14.07;8.25;;;;;;;;;;5033344;28;20041;-76
2023/10/19 14:37:41;;;;;;;14.80;7.88;;;;;;;;;;5042136;28;20045;-76
2023/10/19 14:40:09;;;;;;;14.75;7.22;;;;;;;;;;5040756;28;20451;-76
2023/10/19 14:42:36;;;;;;;13.57;6.90;;;;;;;;;;5051725;28;20068;-77
2023/10/19 14:45:04;;;;;;;14.05;7.35;;;;;;;;;;5039591;28;20026;-76
2023/10/19 14:47:30;;;;;;;9.38;7.20;;;;;;;;;;5028396;28;20440;-76
2023/10/19 14:49:56;;;;;;;11.25;6.43;;;;;;;;;;5047035;28;20139;-77